Time;durP1;ratioP1;P1;durP2;ratioP2;P2;SDS_P1;SDS_P2;PMS_P1;PMS_P2;Temp;Humidity;BMP_temperature;BMP_pressure;BME280_temperature;BME280_humidity;BME280_pressure;Samples;Min_cycle;Max_cycle;Signal;HPM_P1;HPM_P2
2021/10/01 00:01:56;;;;;;;0.93;0.70;;;12.50;99.90;;;;;;5029238;28;20396;-81
2021/10/01 00:04:22;;;;;;;1.98;1.30;;;12.60;99.90;;;;;;5038560;28;20128;-82
2021/10/01 00:06:48;;;;;;;0.80;0.80;;;12.60;99.90;;;;;;5021705;28;20033;-82
2021/10/01 00:09:14;;;;;;;;;;;12.60;99.90;;;;;;5030398;28;20433;-80
2021/10/01 00:11:43;;;;;;;0.50;0.50;;;12.60;99.90;;;;;;5049560;28;19917;-80
2021/10/01 00:14:09;;;;;;;0.63;0.63;;;12.70;99.90;;;;;;5041686;28;20120;-80
2021/10/01 00:16:34;;;;;;;3.83;0.80;;;12.70;99.90;;;;;;5038191;28;20156;-82
2021/10/01 00:19:00;;;;;;;0.85;0.70;;;12.70;99.90;;;;;;5033162;28;20391;-84
2021/10/01 00:21:26;;;;;;;0.98;0.82;;;12.70;99.90;;;;;;5038293;28;20094;-80
2021/10/01 00:23:51;;;;;;;0.70;0.70;;;12.70;99.90;;;;;;5035224;28;20046;-81
2021/10/01 00:26:17;;;;;;;1.00;0.85;;;12.70;99.90;;;;;;5043841;28;20131;-82
2021/10/01 00:28:43;;;;;;;2.90;0.90;;;12.70;99.90;;;;;;5049360;28;20048;-82
2021/10/01 00:31:08;;;;;;;1.20;0.90;;;12.60;99.90;;;;;;5035998;28;20458;-81
2021/10/01 00:33:34;;;;;;;2.47;0.77;;;12.50;99.90;;;;;;5027131;28;20563;-82
2021/10/01 00:36:00;;;;;;;0.77;0.55;;;12.50;99.90;;;;;;5035299;28;20036;-79
2021/10/01 00:38:29;;;;;;;5.40;1.42;;;12.40;99.90;;;;;;5041897;28;20049;-80
2021/10/01 00:40:55;;;;;;;0.60;0.60;;;12.40;99.90;;;;;;5040140;28;20033;-81
2021/10/01 00:43:21;;;;;;;0.73;0.73;;;12.40;99.90;;;;;;5047398;28;20139;-81
2021/10/01 00:45:46;;;;;;;0.80;0.80;;;12.30;99.90;;;;;;5036923;28;20124;-81
2021/10/01 00:48:12;;;;;;;1.20;1.10;;;12.30;99.90;;;;;;5044297;28;20493;-82
2021/10/01 00:50:38;;;;;;;5.07;1.20;;;12.30;99.90;;;;;;5036190;28;20131;-83
2021/10/01 00:53:04;;;;;;;;;;;12.20;99.90;;;;;;5051604;28;20041;-80
2021/10/01 00:55:30;;;;;;;0.47;0.47;;;12.10;99.90;;;;;;5044502;28;19921;-81
2021/10/01 00:57:56;;;;;;;0.80;0.80;;;12.00;99.90;;;;;;5034991;28;20175;-79
2021/10/01 01:00:28;;;;;;;0.95;0.95;;;11.90;99.90;;;;;;5035541;28;20053;-79
2021/10/01 01:02:57;;;;;;;1.60;0.90;;;11.80;99.90;;;;;;5043485;28;20045;-81
2021/10/01 01:05:47;;;;;;;2.70;1.00;;;11.80;99.90;;;;;;5043996;28;20509;-79
2021/10/01 01:08:20;;;;;;;0.68;0.68;;;11.80;99.90;;;;;;5052338;28;20557;-80
2021/10/01 01:10:54;;;;;;;1.77;1.08;;;11.80;99.90;;;;;;5039553;28;20565;-79
2021/10/01 01:13:34;;;;;;;1.23;1.13;;;11.80;99.90;;;;;;5041948;28;20052;-81
2021/10/01 01:16:10;;;;;;;0.80;0.80;;;11.80;99.90;;;;;;5038538;28;20038;-80
2021/10/01 01:18:42;;;;;;;0.65;0.65;;;11.80;99.90;;;;;;5045769;28;20156;-82
2021/10/01 01:21:16;;;;;;;0.80;0.80;;;11.80;99.90;;;;;;5049324;28;20045;-79
2021/10/01 01:24:14;;;;;;;1.55;0.95;;;11.90;99.90;;;;;;5047480;28;20521;-82
2021/10/01 01:27:12;;;;;;;2.63;1.58;;;11.90;99.90;;;;;;5040323;28;20198;-81
2021/10/01 01:29:53;;;;;;;2.88;1.08;;;11.90;99.90;;;;;;5041233;28;20136;-81
2021/10/01 01:32:22;;;;;;;1.63;1.25;;;11.90;99.90;;;;;;5043986;28;20048;-80
2021/10/01 01:35:06;;;;;;;2.42;0.95;;;11.90;99.90;;;;;;5043307;28;20041;-81
2021/10/01 01:37:45;;;;;;;0.88;0.85;;;11.90;99.90;;;;;;5043446;28;20043;-79
2021/10/01 01:40:14;;;;;;;2.20;1.10;;;12.00;99.90;;;;;;5034982;28;20049;-83
2021/10/01 01:42:42;;;;;;;3.15;1.20;;;12.00;99.90;;;;;;5041062;28;20045;-83
2021/10/01 01:45:11;;;;;;;0.45;0.45;;;12.10;99.90;;;;;;5033201;28;20045;-82
2021/10/01 01:47:38;;;;;;;0.55;0.55;;;12.10;99.90;;;;;;5033297;28;20076;-80
2021/10/01 01:50:05;;;;;;;1.55;1.27;;;12.10;99.90;;;;;;5032629;28;20060;-81
2021/10/01 01:52:33;;;;;;;0.70;0.70;;;12.10;99.90;;;;;;5038071;28;20374;-79
2021/10/01 01:55:00;;;;;;;1.63;1.00;;;12.10;99.90;;;;;;5041831;28;20053;-80
2021/10/01 01:57:27;;;;;;;1.15;0.98;;;12.20;99.90;;;;;;5034257;28;20057;-82
2021/10/01 01:59:54;;;;;;;6.25;1.23;;;12.20;99.90;;;;;;5035321;28;20069;-80
2021/10/01 02:02:21;;;;;;;3.63;1.70;;;12.30;99.90;;;;;;5033290;28;20049;-80
2021/10/01 02:04:48;;;;;;;1.40;1.02;;;12.30;99.90;;;;;;5043383;28;20395;-81
2021/10/01 02:07:15;;;;;;;0.88;0.85;;;12.30;99.90;;;;;;5058283;28;20043;-81
2021/10/01 02:09:43;;;;;;;0.88;0.88;;;12.30;99.90;;;;;;5031436;28;20081;-81
2021/10/01 02:12:09;;;;;;;0.82;0.80;;;12.30;99.90;;;;;;5030322;28;20422;-79
2021/10/01 02:14:39;;;;;;;0.68;0.68;;;12.30;99.90;;;;;;5030846;28;20044;-83
2021/10/01 02:17:06;;;;;;;0.88;0.70;;;12.30;99.90;;;;;;5045123;28;20095;-81
2021/10/01 02:19:35;;;;;;;1.88;1.05;;;12.30;99.90;;;;;;5022061;28;20409;-81
2021/10/01 02:22:03;;;;;;;1.05;0.93;;;12.30;99.90;;;;;;5038727;28;20032;-81
2021/10/01 02:24:34;;;;;;;1.15;0.77;;;12.30;99.90;;;;;;5042137;28;20161;-80
2021/10/01 02:27:31;;;;;;;1.13;0.90;;;12.40;99.90;;;;;;5027209;28;20068;-82
2021/10/01 02:30:29;;;;;;;0.80;0.80;;;12.40;99.90;;;;;;5035992;28;20049;-80
2021/10/01 02:33:19;;;;;;;0.70;0.70;;;12.40;99.90;;;;;;5031893;28;20108;-81
2021/10/01 02:35:45;;;;;;;0.82;0.80;;;12.40;99.90;;;;;;5031332;28;20042;-81
2021/10/01 02:38:11;;;;;;;0.77;0.77;;;12.40;99.90;;;;;;5041670;28;20037;-80
2021/10/01 02:40:37;;;;;;;0.98;0.98;;;12.40;99.90;;;;;;5038535;28;20498;-81
2021/10/01 02:43:02;;;;;;;0.90;0.82;;;12.50;99.90;;;;;;5032356;28;20052;-80
2021/10/01 02:45:28;;;;;;;1.00;0.65;;;12.40;99.90;;;;;;5031210;28;20128;-78
2021/10/01 02:47:54;;;;;;;1.15;1.10;;;12.40;99.90;;;;;;5018348;28;20051;-79
2021/10/01 02:50:22;;;;;;;1.02;0.98;;;12.50;99.90;;;;;;5043110;28;20122;-81
2021/10/01 02:52:59;;;;;;;0.50;0.50;;;12.50;99.90;;;;;;5014929;28;20459;-81
2021/10/01 02:55:35;;;;;;;1.98;0.90;;;12.40;99.90;;;;;;5036411;28;20057;-80
2021/10/01 02:58:12;;;;;;;4.10;1.10;;;12.40;99.90;;;;;;5032661;28;20037;-82
2021/10/01 03:00:38;;;;;;;0.70;0.70;;;12.40;99.90;;;;;;5031184;28;20136;-80
2021/10/01 03:03:09;;;;;;;1.30;0.70;;;12.40;99.90;;;;;;5042826;28;20033;-83
2021/10/01 03:05:37;;;;;;;1.08;0.98;;;12.40;99.90;;;;;;5027386;28;20068;-84
2021/10/01 03:08:04;;;;;;;2.38;1.33;;;12.40;99.90;;;;;;5034426;28;20045;-80
2021/10/01 03:10:31;;;;;;;1.67;1.08;;;12.40;99.90;;;;;;5044284;28;20519;-81
2021/10/01 03:12:58;;;;;;;0.73;0.73;;;12.40;99.90;;;;;;5035895;28;20049;-81
2021/10/01 03:15:25;;;;;;;1.52;1.20;;;12.30;99.90;;;;;;5037999;28;20041;-81
2021/10/01 03:17:50;;;;;;;;;;;12.30;99.90;;;;;;5040277;28;20119;-80
2021/10/01 03:20:17;;;;;;;1.20;1.10;;;12.30;99.90;;;;;;5037632;28;19917;-80
2021/10/01 03:22:43;;;;;;;3.47;1.10;;;12.30;99.90;;;;;;5050696;28;20107;-78
2021/10/01 03:25:12;;;;;;;3.95;1.45;;;12.30;99.90;;;;;;5044921;28;20124;-81
2021/10/01 03:27:38;;;;;;;1.10;0.98;;;12.20;99.90;;;;;;5036640;28;20115;-82
2021/10/01 03:30:06;;;;;;;1.75;1.15;;;12.20;99.90;;;;;;5038284;28;20129;-80
2021/10/01 03:32:33;;;;;;;1.35;1.15;;;12.10;99.90;;;;;;5049192;28;20102;-80
2021/10/01 03:35:02;;;;;;;;;;;12.10;99.90;;;;;;5041526;28;20124;-78
2021/10/01 03:37:31;;;;;;;0.60;0.60;;;12.10;99.90;;;;;;5037657;28;19917;-81
2021/10/01 03:40:04;;;;;;;1.33;0.98;;;12.10;99.90;;;;;;5048333;28;20053;-80
2021/10/01 03:42:30;;;;;;;1.80;1.20;;;12.00;99.90;;;;;;5035774;28;20049;-78
2021/10/01 03:44:56;;;;;;;0.82;0.82;;;12.00;99.90;;;;;;5034229;28;20049;-81
2021/10/01 03:47:22;;;;;;;11.63;1.20;;;12.00;99.90;;;;;;5035289;28;20099;-78
2021/10/01 03:49:47;;;;;;;0.60;0.60;;;11.90;99.90;;;;;;5035618;28;20136;-81
2021/10/01 03:52:13;;;;;;;3.03;1.10;;;11.90;99.90;;;;;;5046055;28;20048;-82
2021/10/01 03:54:42;;;;;;;0.80;0.80;;;11.90;99.90;;;;;;5033673;28;20058;-79
2021/10/01 03:57:08;;;;;;;1.50;0.90;;;11.90;99.90;;;;;;5025544;28;20111;-78
2021/10/01 03:59:34;;;;;;;1.17;0.93;;;11.80;99.90;;;;;;5045808;28;20046;-81
2021/10/01 04:01:59;;;;;;;1.65;1.20;;;11.90;99.90;;;;;;5033847;28;20036;-81
2021/10/01 04:04:25;;;;;;;0.90;0.90;;;11.80;99.90;;;;;;5048560;28;20040;-79
2021/10/01 04:06:51;;;;;;;3.50;1.48;;;11.80;99.90;;;;;;5035652;28;20053;-83
2021/10/01 04:09:16;;;;;;;1.02;0.80;;;11.80;99.90;;;;;;5039230;28;20123;-80
2021/10/01 04:11:43;;;;;;;2.25;1.10;;;11.80;99.90;;;;;;5019979;28;20040;-79
2021/10/01 04:14:08;;;;;;;;;;;11.80;99.90;;;;;;5025928;28;20383;-79
2021/10/01 04:16:34;;;;;;;3.10;1.00;;;11.80;99.90;;;;;;5042313;28;19929;-79
2021/10/01 04:19:00;;;;;;;2.72;1.50;;;11.80;99.90;;;;;;5035052;28;20487;-81
2021/10/01 04:21:26;;;;;;;1.45;1.00;;;11.80;99.90;;;;;;5037006;28;20056;-80
2021/10/01 04:23:52;;;;;;;5.68;1.83;;;11.80;99.90;;;;;;5039659;28;20045;-81
2021/10/01 04:26:18;;;;;;;1.85;1.63;;;11.80;99.90;;;;;;5036552;28;20124;-81
2021/10/01 04:28:45;;;;;;;0.50;0.50;;;11.80;99.90;;;;;;5039099;28;20079;-79
2021/10/01 04:31:10;;;;;;;1.40;0.98;;;11.80;99.90;;;;;;5038618;28;20052;-78
2021/10/01 04:33:39;;;;;;;1.17;1.08;;;11.80;99.90;;;;;;5040667;28;20049;-79
2021/10/01 04:36:05;;;;;;;1.75;1.13;;;11.80;99.90;;;;;;5044345;28;20422;-79
2021/10/01 04:38:31;;;;;;;0.82;0.82;;;11.80;99.90;;;;;;5049556;28;20047;-81
2021/10/01 04:40:57;;;;;;;1.30;1.20;;;11.80;99.90;;;;;;5048254;28;20041;-79
2021/10/01 04:43:23;;;;;;;1.13;0.95;;;11.80;99.90;;;;;;5023655;28;20112;-79
2021/10/01 04:45:48;;;;;;;1.48;1.38;;;11.70;99.90;;;;;;5037315;28;20794;-79
2021/10/01 04:48:15;;;;;;;1.33;1.15;;;11.70;99.90;;;;;;5023518;28;20041;-79
2021/10/01 04:50:41;;;;;;;0.52;0.52;;;11.60;99.90;;;;;;5007704;28;20045;-78
2021/10/01 04:53:07;;;;;;;;;;;11.60;99.90;;;;;;5031978;28;20399;-81
2021/10/01 04:55:33;;;;;;;1.27;1.02;;;11.60;99.90;;;;;;5041480;28;19935;-77
2021/10/01 04:57:59;;;;;;;;;;;11.60;99.90;;;;;;5039775;28;20386;-81
2021/10/01 05:00:25;;;;;;;0.85;0.80;;;11.50;99.90;;;;;;5042805;28;19917;-80
2021/10/01 05:02:50;;;;;;;3.42;1.00;;;11.50;99.90;;;;;;5049602;28;20090;-79
2021/10/01 05:05:16;;;;;;;0.80;0.80;;;11.50;99.90;;;;;;5035546;28;20049;-81
2021/10/01 05:07:42;;;;;;;5.90;2.13;;;11.50;99.90;;;;;;5040645;28;20033;-78
2021/10/01 05:10:08;;;;;;;;;;;11.50;99.90;;;;;;5033381;28;20037;-80
2021/10/01 05:12:34;;;;;;;1.85;0.55;;;11.50;99.90;;;;;;5037372;28;19944;-79
2021/10/01 05:15:00;;;;;;;6.88;1.23;;;11.50;99.90;;;;;;5024744;28;20100;-79
2021/10/01 05:17:25;;;;;;;0.60;0.60;;;11.50;99.90;;;;;;5042902;28;20045;-80
2021/10/01 05:19:51;;;;;;;2.78;1.10;;;11.50;99.90;;;;;;5031623;28;20681;-79
2021/10/01 05:22:17;;;;;;;1.40;1.10;;;11.60;99.90;;;;;;5023783;28;20530;-82
2021/10/01 05:24:44;;;;;;;0.80;0.80;;;11.60;99.90;;;;;;5034438;28;20041;-82
2021/10/01 05:27:10;;;;;;;;;;;11.60;99.90;;;;;;5021036;28;20041;-80
2021/10/01 05:29:35;;;;;;;1.90;1.20;;;11.60;99.90;;;;;;5027989;28;20338;-79
2021/10/01 05:32:02;;;;;;;1.27;1.00;;;11.60;99.90;;;;;;5048475;28;20064;-79
2021/10/01 05:34:29;;;;;;;1.17;1.00;;;11.60;99.90;;;;;;5032235;28;20064;-80
2021/10/01 05:36:55;;;;;;;0.82;0.70;;;11.60;99.90;;;;;;5030499;28;20116;-79
2021/10/01 05:39:21;;;;;;;0.82;0.77;;;11.60;99.90;;;;;;5056385;28;20038;-80
2021/10/01 05:41:46;;;;;;;1.00;0.90;;;11.60;99.90;;;;;;5039733;28;20040;-78
2021/10/01 05:44:12;;;;;;;0.90;0.80;;;11.60;99.90;;;;;;5028274;28;20502;-85
2021/10/01 05:46:43;;;;;;;2.42;1.52;;;11.70;99.90;;;;;;5035680;28;20048;-80
2021/10/01 05:49:13;;;;;;;1.23;1.13;;;11.60;99.90;;;;;;5025292;28;20083;-84
2021/10/01 05:51:46;;;;;;;1.90;0.90;;;11.70;99.90;;;;;;5041549;28;20067;-82
2021/10/01 05:54:14;;;;;;;1.02;0.93;;;11.70;99.90;;;;;;5039439;28;20053;-80
2021/10/01 05:56:40;;;;;;;1.23;0.85;;;11.70;99.90;;;;;;5046624;28;20093;-81
2021/10/01 05:59:06;;;;;;;1.00;0.90;;;11.70;99.90;;;;;;5056860;28;20077;-80
2021/10/01 06:01:32;;;;;;;;;;;11.70;99.90;;;;;;5017257;28;20072;-79
2021/10/01 06:03:58;;;;;;;0.70;0.70;;;11.70;99.90;;;;;;5041132;28;19916;-79
2021/10/01 06:06:24;;;;;;;1.58;0.73;;;11.80;99.90;;;;;;5045831;28;20040;-82
2021/10/01 06:08:49;;;;;;;0.85;0.85;;;11.80;99.90;;;;;;5042301;28;20049;-77
2021/10/01 06:11:15;;;;;;;1.55;0.73;;;11.80;99.90;;;;;;5037218;28;20034;-81
2021/10/01 06:13:41;;;;;;;1.73;1.10;;;11.80;99.90;;;;;;5030869;28;20053;-82
2021/10/01 06:16:06;;;;;;;1.75;1.23;;;11.80;99.90;;;;;;5044938;28;20045;-80
2021/10/01 06:18:32;;;;;;;1.13;0.95;;;11.90;99.90;;;;;;5043678;28;20102;-79
2021/10/01 06:20:58;;;;;;;2.75;0.80;;;11.90;99.90;;;;;;5033768;28;20037;-80
2021/10/01 06:23:26;;;;;;;0.52;0.52;;;11.90;99.90;;;;;;5022487;28;20041;-81
2021/10/01 06:25:52;;;;;;;0.80;0.80;;;11.90;99.90;;;;;;5036936;28;20049;-80
2021/10/01 06:28:19;;;;;;;1.15;1.05;;;11.90;99.90;;;;;;5034068;28;20080;-82
2021/10/01 06:30:45;;;;;;;0.50;0.50;;;12.00;99.90;;;;;;5035982;28;20451;-81
2021/10/01 06:33:11;;;;;;;0.70;0.70;;;12.10;99.90;;;;;;5033763;28;20175;-81
2021/10/01 06:35:36;;;;;;;0.90;0.90;;;12.10;99.90;;;;;;5045525;28;20048;-80
2021/10/01 06:38:03;;;;;;;0.80;0.80;;;12.20;99.90;;;;;;5023358;28;20068;-79
2021/10/01 06:40:29;;;;;;;1.65;0.80;;;12.20;99.90;;;;;;5034665;28;20052;-79
2021/10/01 06:42:56;;;;;;;3.55;1.10;;;12.20;99.90;;;;;;5036389;28;20041;-80
2021/10/01 06:45:25;;;;;;;1.23;1.00;;;12.20;99.90;;;;;;5042546;28;20060;-78
2021/10/01 08:20:16;;;;;;;1.15;0.80;;;13.40;99.90;;;;;;5042205;28;20052;-81
2021/10/01 08:22:42;;;;;;;2.47;1.33;;;13.40;99.90;;;;;;5034239;28;20057;-79
2021/10/01 08:25:08;;;;;;;1.38;0.85;;;13.40;99.90;;;;;;5041519;28;20029;-77
2021/10/01 08:27:35;;;;;;;3.20;1.13;;;13.50;99.90;;;;;;5037217;28;20057;-78
2021/10/01 08:30:04;;;;;;;1.30;0.90;;;13.50;99.90;;;;;;5036960;28;20095;-78
2021/10/01 08:32:30;;;;;;;1.10;1.00;;;13.50;99.90;;;;;;5051335;28;20120;-79
2021/10/01 08:34:55;;;;;;;4.95;1.30;;;13.60;99.90;;;;;;5040552;28;20141;-82
2021/10/01 08:37:21;;;;;;;0.65;0.63;;;13.70;99.90;;;;;;5039135;28;20045;-78
2021/10/01 08:39:47;;;;;;;6.18;1.20;;;13.90;99.90;;;;;;5053067;28;20037;-78
2021/10/01 08:42:13;;;;;;;1.02;0.93;;;14.10;99.90;;;;;;5033874;28;20049;-81
2021/10/01 08:44:39;;;;;;;;;;;14.30;99.90;;;;;;5048704;28;20081;-77
2021/10/01 08:47:06;;;;;;;1.55;0.88;;;14.40;99.90;;;;;;5038949;28;19948;-79
2021/10/01 08:49:34;;;;;;;1.02;0.88;;;14.50;99.90;;;;;;5036477;28;20128;-78
2021/10/01 08:52:00;;;;;;;0.75;0.75;;;14.70;99.90;;;;;;5038841;28;20124;-81
2021/10/01 08:54:26;;;;;;;0.70;0.68;;;14.80;99.90;;;;;;5034608;28;20108;-78
2021/10/01 08:56:52;;;;;;;1.33;0.90;;;14.90;99.90;;;;;;5046947;28;20085;-78
2021/10/01 08:59:18;;;;;;;0.50;0.50;;;15.10;99.90;;;;;;5036639;28;20096;-78
2021/10/01 09:01:44;;;;;;;1.65;1.38;;;15.20;99.90;;;;;;5036594;28;20037;-81
2021/10/01 09:04:13;;;;;;;0.93;0.90;;;15.40;99.90;;;;;;5021653;28;20060;-79
2021/10/01 09:06:38;;;;;;;4.38;0.82;;;15.50;99.90;;;;;;5040909;28;20485;-77
2021/10/01 09:09:05;;;;;;;0.93;0.77;;;15.50;99.90;;;;;;5036954;28;20072;-79
2021/10/01 09:11:34;;;;;;;1.15;0.70;;;15.60;99.90;;;;;;5032481;28;20045;-79
2021/10/01 09:14:10;;;;;;;2.13;1.08;;;15.60;99.90;;;;;;5028276;28;20045;-80
2021/10/01 09:16:38;;;;;;;2.40;0.90;;;15.80;99.90;;;;;;5048768;28;20037;-80
2021/10/01 09:19:06;;;;;;;2.08;0.90;;;15.90;99.90;;;;;;5050435;28;20049;-79
2021/10/01 09:21:41;;;;;;;2.95;1.10;;;16.00;99.90;;;;;;5036229;28;20048;-77
2021/10/01 09:24:10;;;;;;;0.60;0.60;;;16.00;99.90;;;;;;5038299;28;20037;-82
2021/10/01 09:26:44;;;;;;;0.90;0.80;;;15.90;99.90;;;;;;5031868;28;20064;-81
2021/10/01 09:29:15;;;;;;;0.90;0.85;;;15.90;99.90;;;;;;5040669;28;20051;-83
2021/10/01 09:31:44;;;;;;;1.23;0.93;;;15.90;99.90;;;;;;5040204;28;20056;-80
2021/10/01 09:34:22;;;;;;;1.95;1.08;;;15.90;99.90;;;;;;5038382;28;20040;-80
2021/10/01 09:37:03;;;;;;;1.17;1.02;;;16.00;99.90;;;;;;5041393;28;20510;-80
2021/10/01 09:39:31;;;;;;;1.38;1.05;;;16.10;99.90;;;;;;5036287;28;20045;-78
2021/10/01 09:41:59;;;;;;;1.42;1.00;;;16.10;99.90;;;;;;5037315;28;20482;-78
2021/10/01 09:44:29;;;;;;;1.13;0.90;;;16.00;99.90;;;;;;5034212;28;20590;-84
2021/10/01 09:46:56;;;;;;;2.15;1.10;;;15.90;99.90;;;;;;5045709;28;20120;-78
2021/10/01 09:49:33;;;;;;;2.72;0.80;;;15.80;99.90;;;;;;5043039;28;20049;-79
2021/10/01 09:51:59;;;;;;;3.47;0.88;;;15.70;99.90;;;;;;5014280;28;20116;-78
2021/10/01 09:54:27;;;;;;;0.73;0.73;;;15.60;99.90;;;;;;5034321;28;20049;-80
2021/10/01 09:56:58;;;;;;;0.50;0.50;;;15.60;99.90;;;;;;5042018;28;20057;-80
2021/10/01 09:59:25;;;;;;;2.45;0.70;;;15.60;99.90;;;;;;5033215;28;20041;-79
2021/10/01 10:02:00;;;;;;;0.68;0.68;;;15.60;99.90;;;;;;5027081;28;20037;-79
2021/10/01 10:04:27;;;;;;;0.68;0.60;;;15.70;99.90;;;;;;5041458;28;20072;-80
2021/10/01 10:06:53;;;;;;;2.03;0.80;;;15.80;99.90;;;;;;5041971;28;20045;-81
2021/10/01 10:09:33;;;;;;;0.60;0.55;;;15.80;99.90;;;;;;5016099;28;20057;-80
2021/10/01 10:12:00;;;;;;;4.05;0.90;;;15.90;99.90;;;;;;5041113;28;20052;-78
2021/10/01 10:14:26;;;;;;;1.02;0.85;;;16.00;99.90;;;;;;5041592;28;20074;-79
2021/10/01 10:16:52;;;;;;;2.17;0.90;;;16.00;99.90;;;;;;5020824;28;20788;-79
2021/10/01 10:19:20;;;;;;;9.23;1.38;;;16.00;99.90;;;;;;5023129;28;20041;-78
2021/10/01 10:21:50;;;;;;;0.90;0.70;;;16.10;99.90;;;;;;5046933;28;20494;-82
2021/10/01 10:24:17;;;;;;;2.25;0.68;;;16.10;99.90;;;;;;5023466;28;20041;-81
2021/10/01 10:26:42;;;;;;;0.50;0.50;;;16.20;99.90;;;;;;5048100;28;20063;-80
2021/10/01 10:29:12;;;;;;;4.03;1.23;;;16.20;99.90;;;;;;5041562;28;20466;-82
2021/10/01 10:31:43;;;;;;;0.52;0.52;;;16.40;99.90;;;;;;5035508;28;20073;-79
2021/10/01 10:34:23;;;;;;;1.85;0.95;;;16.40;99.90;;;;;;5025435;28;20037;-79
2021/10/01 10:36:50;;;;;;;0.82;0.60;;;16.50;99.90;;;;;;5040345;28;20048;-79
2021/10/01 10:39:17;;;;;;;0.52;0.52;;;16.50;99.90;;;;;;5025775;28;20037;-79
2021/10/01 10:41:44;;;;;;;1.25;1.13;;;16.50;99.90;;;;;;5024815;28;20069;-79
2021/10/01 10:44:12;;;;;;;1.80;1.00;;;16.50;99.90;;;;;;5033315;28;20039;-79
2021/10/01 10:46:38;;;;;;;2.53;0.98;;;16.50;99.90;;;;;;5036788;28;20155;-82
2021/10/01 10:49:22;;;;;;;0.75;0.60;;;16.50;99.90;;;;;;5029505;28;20114;-79
2021/10/01 10:51:57;;;;;;;1.20;0.90;;;16.40;99.90;;;;;;5007589;28;20047;-80
2021/10/01 10:54:31;;;;;;;0.82;0.80;;;16.40;99.90;;;;;;5040148;28;20438;-77
2021/10/01 10:57:15;;;;;;;1.15;0.80;;;16.40;99.90;;;;;;5021851;28;20080;-81
2021/10/01 10:59:45;;;;;;;0.50;0.50;;;16.30;99.90;;;;;;5038788;28;20041;-77
2021/10/01 11:02:28;;;;;;;0.80;0.80;;;16.40;99.90;;;;;;5038985;28;20123;-79
2021/10/01 11:05:20;;;;;;;0.60;0.60;;;16.50;99.90;;;;;;5019740;28;20071;-79
2021/10/01 11:07:52;;;;;;;1.20;0.98;;;16.60;99.90;;;;;;5044076;28;20030;-79
2021/10/01 11:10:44;;;;;;;1.50;0.75;;;16.70;99.90;;;;;;5031877;28;20075;-81
2021/10/01 11:13:22;;;;;;;1.13;0.73;;;16.80;99.90;;;;;;5037923;28;20125;-80
2021/10/01 11:16:09;;;;;;;0.60;0.60;;;16.80;99.90;;;;;;5041853;28;20475;-82
2021/10/01 11:18:45;;;;;;;0.70;0.70;;;16.90;99.90;;;;;;5049308;28;20041;-80
2021/10/01 11:21:29;;;;;;;1.02;0.93;;;17.10;99.90;;;;;;5047615;28;20037;-80
2021/10/01 11:23:55;;;;;;;1.88;0.90;;;17.20;99.90;;;;;;5035733;28;20498;-79
2021/10/01 11:26:29;;;;;;;0.55;0.55;;;17.40;99.90;;;;;;5035731;28;20051;-80
2021/10/01 11:28:55;;;;;;;0.65;0.60;;;17.50;99.90;;;;;;5042501;28;20044;-77
2021/10/01 11:31:21;;;;;;;;;;;17.60;99.90;;;;;;5029974;28;20049;-83
2021/10/01 11:33:51;;;;;;;1.08;0.75;;;17.60;99.90;;;;;;5017705;28;19923;-80
2021/10/01 11:36:24;;;;;;;1.67;1.05;;;17.60;99.90;;;;;;5037071;28;20055;-81
2021/10/01 11:39:00;;;;;;;0.80;0.60;;;17.50;99.90;;;;;;5018688;28;20038;-83
2021/10/01 11:41:25;;;;;;;1.15;0.90;;;17.40;99.90;;;;;;5035262;28;20041;-79
2021/10/01 11:43:56;;;;;;;0.63;0.63;;;17.40;99.90;;;;;;5036484;28;20038;-79
2021/10/01 11:46:32;;;;;;;1.23;0.80;;;17.40;99.90;;;;;;5035292;28;20047;-79
2021/10/01 11:49:02;;;;;;;0.80;0.80;;;17.40;99.90;;;;;;5044660;28;20041;-78
2021/10/01 11:51:31;;;;;;;1.08;0.80;;;17.40;99.90;;;;;;5034044;28;20750;-78
2021/10/01 11:54:13;;;;;;;2.05;0.90;;;17.50;99.90;;;;;;5045455;28;20048;-82
2021/10/01 11:56:40;;;;;;;0.70;0.70;;;17.50;99.90;;;;;;5024491;28;20054;-77
2021/10/01 11:59:06;;;;;;;0.65;0.65;;;17.40;99.90;;;;;;5048625;28;20040;-79
2021/10/01 12:01:32;;;;;;;;;;;17.40;99.90;;;;;;5036090;28;20050;-79
2021/10/01 12:03:59;;;;;;;0.60;0.60;;;17.40;99.90;;;;;;5036035;28;19917;-80
2021/10/01 12:06:36;;;;;;;2.92;1.25;;;17.30;99.90;;;;;;5033888;28;20068;-77
2021/10/01 12:09:04;;;;;;;1.10;0.70;;;17.20;99.90;;;;;;5029825;28;20363;-76
2021/10/01 12:11:35;;;;;;;1.08;0.73;;;17.10;99.90;;;;;;5053042;28;20526;-76
2021/10/01 12:14:19;;;;;;;0.75;0.75;;;16.90;99.90;;;;;;5043769;28;20045;-79
2021/10/01 12:17:02;;;;;;;1.13;0.88;;;16.60;99.90;;;;;;5046430;28;20315;-78
2021/10/01 12:19:29;;;;;;;0.68;0.68;;;16.40;99.90;;;;;;5018695;28;20045;-84
2021/10/01 12:22:06;;;;;;;0.95;0.70;;;16.30;99.90;;;;;;5038016;28;20047;-78
2021/10/01 12:24:54;;;;;;;2.97;1.10;;;16.20;99.90;;;;;;5034017;28;20075;-78
2021/10/01 12:27:31;;;;;;;1.40;1.25;;;16.10;99.90;;;;;;5039688;28;20055;-77
2021/10/01 12:29:57;;;;;;;0.73;0.63;;;16.00;99.90;;;;;;5053371;28;20081;-80
2021/10/01 12:32:23;;;;;;;4.03;1.20;;;15.90;99.90;;;;;;5037955;28;20673;-80
2021/10/01 12:34:56;;;;;;;0.63;0.63;;;15.70;99.90;;;;;;5033700;28;20046;-82
2021/10/01 12:37:23;;;;;;;1.25;1.05;;;15.50;99.90;;;;;;5027156;28;20037;-79
2021/10/01 12:39:58;;;;;;;1.02;0.90;;;15.30;99.90;;;;;;5032101;28;20041;-80
2021/10/01 12:42:32;;;;;;;1.73;1.05;;;15.00;99.90;;;;;;5040444;28;20382;-79
2021/10/01 12:45:05;;;;;;;2.83;0.95;;;14.80;99.90;;;;;;5032857;28;20483;-80
2021/10/01 12:47:36;;;;;;;0.88;0.80;;;14.60;99.90;;;;;;5038836;28;20052;-79
2021/10/01 12:50:11;;;;;;;2.45;0.90;;;14.50;99.90;;;;;;5019285;28;20063;-82
2021/10/01 12:52:42;;;;;;;2.63;1.35;;;14.30;99.90;;;;;;5024349;28;20053;-79
2021/10/01 12:55:10;;;;;;;1.13;0.98;;;14.20;99.90;;;;;;5038949;28;20040;-80
2021/10/01 12:57:45;;;;;;;3.80;1.00;;;14.00;99.90;;;;;;5041107;28;20076;-83
2021/10/01 13:00:27;;;;;;;1.88;1.30;;;13.90;99.90;;;;;;5040603;28;20067;-83
2021/10/01 13:02:59;;;;;;;1.35;1.25;;;13.80;99.90;;;;;;5032191;28;20098;-81
2021/10/01 13:05:29;;;;;;;1.67;0.98;;;13.70;99.90;;;;;;5033507;28;20259;-84
2021/10/01 13:07:58;;;;;;;0.80;0.80;;;13.60;99.90;;;;;;5039897;28;20522;-87
2021/10/01 13:10:32;;;;;;;4.72;1.10;;;13.60;99.90;;;;;;5036306;28;20045;-85
2021/10/01 13:13:11;;;;;;;1.38;1.27;;;13.50;99.90;;;;;;5053016;28;20048;-86
2021/10/01 13:15:38;;;;;;;1.13;1.00;;;13.40;99.90;;;;;;5052086;28;20039;-86
2021/10/01 13:18:17;;;;;;;2.03;1.23;;;13.40;99.90;;;;;;5045234;28;20052;-82
2021/10/01 13:21:04;;;;;;;1.20;1.08;;;13.40;99.90;;;;;;5044387;28;20510;-85
2021/10/01 13:23:52;;;;;;;1.83;1.38;;;13.30;99.90;;;;;;5017510;28;20108;-84
2021/10/01 13:26:22;;;;;;;2.05;1.00;;;13.30;99.90;;;;;;5022089;28;20455;-84
2021/10/01 13:28:53;;;;;;;1.77;1.67;;;13.30;99.90;;;;;;5021278;28;20057;-87
2021/10/01 13:31:22;;;;;;;4.50;1.63;;;13.40;99.90;;;;;;5033396;28;20125;-85
2021/10/01 13:33:51;;;;;;;1.17;1.08;;;13.30;99.90;;;;;;5049495;28;20049;-84
2021/10/01 13:36:17;;;;;;;2.90;1.25;;;13.40;99.90;;;;;;5051965;28;20533;-83
2021/10/01 13:38:44;;;;;;;1.40;1.30;;;13.40;99.90;;;;;;5034303;28;20049;-85
2021/10/01 13:41:11;;;;;;;1.95;1.75;;;13.40;99.90;;;;;;5043790;28;20098;-82
2021/10/01 13:43:38;;;;;;;3.53;1.40;;;13.30;99.90;;;;;;5047258;28;20145;-81
2021/10/01 13:46:06;;;;;;;1.27;1.02;;;13.30;99.90;;;;;;5050714;28;20045;-77
2021/10/01 13:48:32;;;;;;;3.85;1.80;;;13.40;99.90;;;;;;5041832;28;20128;-79
2021/10/01 13:50:58;;;;;;;;;;;13.40;99.90;;;;;;5042160;28;20052;-81
2021/10/01 13:53:24;;;;;;;5.07;1.75;;;13.40;99.90;;;;;;5046121;28;19917;-80
2021/10/01 13:55:51;;;;;;;2.80;2.15;;;13.50;99.90;;;;;;5024970;28;20124;-79
2021/10/01 13:58:17;;;;;;;1.45;1.13;;;13.50;99.90;;;;;;5052441;28;20505;-82
2021/10/01 14:00:43;;;;;;;;;;;13.60;99.90;;;;;;5043389;28;20079;-81
2021/10/01 14:03:09;;;;;;;1.30;1.20;;;13.70;99.90;;;;;;5052842;28;20305;-83
2021/10/01 14:05:35;;;;;;;1.98;1.50;;;13.70;99.90;;;;;;5048894;28;20045;-82
2021/10/01 14:08:01;;;;;;;1.67;1.25;;;13.80;99.90;;;;;;5027207;28;20053;-82
2021/10/01 14:10:30;;;;;;;1.70;1.15;;;13.80;99.90;;;;;;5044620;28;20041;-84
2021/10/01 14:12:56;;;;;;;3.53;2.00;;;13.80;99.90;;;;;;5030271;28;20037;-80
2021/10/01 14:15:24;;;;;;;1.52;1.08;;;13.90;99.90;;;;;;5042023;28;20502;-78
2021/10/01 14:17:51;;;;;;;1.63;1.23;;;14.00;99.90;;;;;;5048101;28;20490;-79
2021/10/01 14:20:20;;;;;;;3.60;1.90;;;14.00;99.90;;;;;;5041088;28;20037;-80
2021/10/01 14:22:46;;;;;;;4.18;1.90;;;14.10;99.90;;;;;;5044675;28;20419;-79
2021/10/01 14:25:13;;;;;;;2.72;1.80;;;14.20;99.90;;;;;;5034818;28;20041;-81
2021/10/01 14:27:39;;;;;;;5.07;1.33;;;14.20;99.90;;;;;;5051695;28;20053;-81
2021/10/01 14:30:09;;;;;;;;;;;14.10;99.90;;;;;;5049646;28;20059;-82
2021/10/01 14:32:35;;;;;;;1.30;1.15;;;14.10;99.90;;;;;;5032907;28;19924;-83
2021/10/01 14:35:02;;;;;;;2.25;1.67;;;14.20;99.90;;;;;;5042339;28;20045;-82